TAP353 LPPT-LPPR
Flight info
| Callsign | TAP353 |
|---|---|
| Flight time | 0h 29m |
| Altitude | 22000 |
| Route | IXIDA DCT ABLEG |
| Aircraft | L101/H-SDFGHIRWXY/S |
Departure
| Time | 2026-05-06 16:35 |
|---|---|
| Airport | Lisbon Humberto Delgado Airport (LPPT) |
Arrival
| Time | 2026-05-06 17:05 |
|---|---|
| Airport | Francisco de Sá Carneiro Airport (LPPR) |
| Time | Latitude | Longitude | Altitude | Speed | Heading |
|---|---|---|---|---|---|
| 2026-05-06 15:36 | 38.77429 | -9.13152 | 356 ft | 0 kts | 78° |
| 2026-05-06 16:23 | 38.77429 | -9.13154 | 356 ft | 2 kts | 78° |
| 2026-05-06 16:23 | 38.77423 | -9.13186 | 360 ft | 4 kts | 78° |
| 2026-05-06 16:24 | 38.77419 | -9.13220 | 362 ft | 4 kts | 89° |
| 2026-05-06 16:24 | 38.77422 | -9.13254 | 363 ft | 4 kts | 110° |
| 2026-05-06 16:24 | 38.77435 | -9.13280 | 365 ft | 4 kts | 159° |
| 2026-05-06 16:24 | 38.77440 | -9.13282 | 365 ft | 0 kts | 168° |
| 2026-05-06 16:31 | 38.77431 | -9.13280 | 365 ft | 4 kts | 168° |
| 2026-05-06 16:31 | 38.77386 | -9.13268 | 360 ft | 9 kts | 168° |
| 2026-05-06 16:31 | 38.77333 | -9.13303 | 357 ft | 10 kts | 245° |
| 2026-05-06 16:31 | 38.77310 | -9.13407 | 357 ft | 13 kts | 258° |
| 2026-05-06 16:32 | 38.77293 | -9.13529 | 363 ft | 15 kts | 258° |
| 2026-05-06 16:32 | 38.77271 | -9.13659 | 357 ft | 15 kts | 258° |
| 2026-05-06 16:32 | 38.77258 | -9.13736 | 362 ft | 8 kts | 258° |
| 2026-05-06 16:32 | 38.77243 | -9.13818 | 360 ft | 10 kts | 246° |
| 2026-05-06 16:33 | 38.77177 | -9.13876 | 358 ft | 13 kts | 200° |
| 2026-05-06 16:33 | 38.77080 | -9.13927 | 362 ft | 17 kts | 202° |
| 2026-05-06 16:33 | 38.76958 | -9.13993 | 363 ft | 21 kts | 201° |
| 2026-05-06 16:34 | 38.76664 | -9.14151 | 361 ft | 25 kts | 203° |
| 2026-05-06 16:34 | 38.76602 | -9.14263 | 359 ft | 17 kts | 282° |
| 2026-05-06 16:34 | 38.76662 | -9.14372 | 364 ft | 12 kts | 351° |
| 2026-05-06 16:34 | 38.76736 | -9.14338 | 362 ft | 14 kts | 22° |
| 2026-05-06 16:35 | 38.77008 | -9.14191 | 362 ft | 73 kts | 22° |
| 2026-05-06 16:35 | 38.77666 | -9.13838 | 365 ft | 131 kts | 21° |
| 2026-05-06 16:35 | 38.78637 | -9.13311 | 674 ft | 158 kts | 20° |
| 2026-05-06 16:35 | 38.79619 | -9.12706 | 1509 ft | 158 kts | 20° |
| 2026-05-06 16:36 | 38.80574 | -9.12074 | 2495 ft | 151 kts | 23° |
| 2026-05-06 16:36 | 38.81424 | -9.11359 | 3154 ft | 144 kts | 33° |
| 2026-05-06 16:36 | 38.82162 | -9.10442 | 3604 ft | 152 kts | 39° |
| 2026-05-06 16:36 | 38.82995 | -9.09631 | 4220 ft | 151 kts | 32° |
| 2026-05-06 16:37 | 38.83914 | -9.08848 | 4718 ft | 169 kts | 30° |
| 2026-05-06 16:37 | 38.85060 | -9.08116 | 5055 ft | 202 kts | 19° |
| 2026-05-06 16:37 | 38.86524 | -9.07615 | 5385 ft | 230 kts | 13° |
| 2026-05-06 16:37 | 38.87592 | -9.07327 | 5658 ft | 243 kts | 12° |
| 2026-05-06 16:38 | 38.89310 | -9.06873 | 6033 ft | 262 kts | 12° |
| 2026-05-06 16:38 | 38.91897 | -9.06119 | 6453 ft | 307 kts | 13° |
| 2026-05-06 16:38 | 38.93307 | -9.05671 | 6717 ft | 316 kts | 14° |
| 2026-05-06 16:38 | 38.95298 | -9.05004 | 7281 ft | 281 kts | 15° |
| 2026-05-06 16:39 | 38.97169 | -9.04356 | 7799 ft | 280 kts | 15° |
| 2026-05-06 16:39 | 38.99068 | -9.03751 | 8198 ft | 283 kts | 11° |
| 2026-05-06 16:39 | 39.01013 | -9.03312 | 8602 ft | 285 kts | 8° |
| 2026-05-06 16:39 | 39.03617 | -9.02851 | 8850 ft | 287 kts | 7° |
| 2026-05-06 16:40 | 39.05658 | -9.02497 | 9587 ft | 298 kts | 7° |
| 2026-05-06 16:40 | 39.07026 | -9.02243 | 10478 ft | 291 kts | 8° |
| 2026-05-06 16:40 | 39.09031 | -9.01847 | 11522 ft | 294 kts | 8° |
| 2026-05-06 16:40 | 39.11096 | -9.01418 | 12176 ft | 310 kts | 7° |
| 2026-05-06 16:41 | 39.13314 | -9.00950 | 12426 ft | 338 kts | 7° |
| 2026-05-06 16:41 | 39.15748 | -9.00437 | 12521 ft | 369 kts | 7° |
| 2026-05-06 16:41 | 39.18367 | -8.99886 | 12662 ft | 394 kts | 7° |
| 2026-05-06 16:41 | 39.21115 | -8.99308 | 13371 ft | 400 kts | 8° |
| 2026-05-06 16:42 | 39.23827 | -8.98733 | 14485 ft | 392 kts | 7° |
| 2026-05-06 16:42 | 39.26545 | -8.98161 | 14986 ft | 399 kts | 7° |
| 2026-05-06 16:42 | 39.29305 | -8.97586 | 15486 ft | 406 kts | 7° |
| 2026-05-06 16:42 | 39.32113 | -8.96999 | 16008 ft | 412 kts | 7° |
| 2026-05-06 16:43 | 39.34949 | -8.96402 | 16714 ft | 413 kts | 7° |
| 2026-05-06 16:43 | 39.37809 | -8.95796 | 17240 ft | 420 kts | 7° |
| 2026-05-06 16:43 | 39.40710 | -8.95183 | 17862 ft | 423 kts | 7° |
| 2026-05-06 16:43 | 39.43616 | -8.94571 | 18567 ft | 425 kts | 7° |
| 2026-05-06 16:44 | 39.46554 | -8.93952 | 19045 ft | 431 kts | 7° |
| 2026-05-06 16:44 | 39.49521 | -8.93327 | 19646 ft | 434 kts | 6° |
| 2026-05-06 16:44 | 39.52515 | -8.92695 | 20196 ft | 438 kts | 7° |
| 2026-05-06 16:44 | 39.55538 | -8.92057 | 20765 ft | 442 kts | 7° |
| 2026-05-06 16:45 | 39.58592 | -8.91410 | 21321 ft | 446 kts | 7° |
| 2026-05-06 16:45 | 39.61581 | -8.90774 | 21807 ft | 429 kts | 7° |
| 2026-05-06 16:45 | 39.64485 | -8.90149 | 21906 ft | 411 kts | 7° |
| 2026-05-06 16:45 | 39.67255 | -8.89557 | 21939 ft | 406 kts | 7° |
| 2026-05-06 16:46 | 39.70073 | -8.88961 | 21971 ft | 405 kts | 7° |
| 2026-05-06 16:46 | 39.72815 | -8.88382 | 21956 ft | 404 kts | 7° |
| 2026-05-06 16:46 | 39.75620 | -8.87789 | 21957 ft | 403 kts | 6° |
| 2026-05-06 16:46 | 39.78354 | -8.87210 | 21960 ft | 404 kts | 7° |
| 2026-05-06 16:47 | 39.81158 | -8.86612 | 21974 ft | 403 kts | 7° |
| 2026-05-06 16:47 | 39.83890 | -8.86029 | 21963 ft | 403 kts | 7° |
| 2026-05-06 16:47 | 39.86661 | -8.85436 | 21957 ft | 403 kts | 7° |
| 2026-05-06 16:47 | 39.89428 | -8.84845 | 21970 ft | 403 kts | 7° |
| 2026-05-06 16:48 | 39.92194 | -8.84254 | 21976 ft | 403 kts | 7° |
| 2026-05-06 16:48 | 39.94962 | -8.83662 | 21963 ft | 403 kts | 7° |
| 2026-05-06 16:48 | 39.97733 | -8.83069 | 21965 ft | 403 kts | 7° |
| 2026-05-06 16:48 | 40.00495 | -8.82477 | 21963 ft | 403 kts | 7° |
| 2026-05-06 16:49 | 40.03259 | -8.81885 | 21968 ft | 403 kts | 7° |
| 2026-05-06 16:49 | 40.06024 | -8.81291 | 21965 ft | 403 kts | 7° |
| 2026-05-06 16:49 | 40.08793 | -8.80696 | 21958 ft | 403 kts | 7° |
| 2026-05-06 16:49 | 40.11552 | -8.80103 | 21940 ft | 401 kts | 7° |
| 2026-05-06 16:50 | 40.14294 | -8.79511 | 21470 ft | 400 kts | 7° |
| 2026-05-06 16:50 | 40.17031 | -8.78920 | 20939 ft | 396 kts | 7° |
| 2026-05-06 16:50 | 40.19735 | -8.78334 | 20312 ft | 392 kts | 7° |
| 2026-05-06 16:50 | 40.22421 | -8.77757 | 19691 ft | 389 kts | 7° |
| 2026-05-06 16:51 | 40.25069 | -8.77189 | 19116 ft | 384 kts | 7° |
| 2026-05-06 16:51 | 40.27700 | -8.76624 | 18506 ft | 381 kts | 7° |
| 2026-05-06 16:51 | 40.30299 | -8.76062 | 17929 ft | 376 kts | 7° |
| 2026-05-06 16:51 | 40.32874 | -8.75503 | 17219 ft | 374 kts | 7° |
| 2026-05-06 16:52 | 40.35427 | -8.74951 | 16652 ft | 369 kts | 7° |
| 2026-05-06 16:52 | 40.37946 | -8.74408 | 16020 ft | 365 kts | 7° |
| 2026-05-06 16:52 | 40.40443 | -8.73868 | 15415 ft | 362 kts | 7° |
| 2026-05-06 16:52 | 40.42910 | -8.73334 | 14891 ft | 357 kts | 7° |
| 2026-05-06 16:53 | 40.45349 | -8.72802 | 14316 ft | 354 kts | 7° |
| 2026-05-06 16:53 | 40.47758 | -8.72279 | 13797 ft | 350 kts | 8° |
| 2026-05-06 16:53 | 40.50149 | -8.71760 | 13166 ft | 347 kts | 7° |
| 2026-05-06 16:53 | 40.52519 | -8.71243 | 12567 ft | 344 kts | 8° |
| 2026-05-06 16:54 | 40.54871 | -8.70729 | 11998 ft | 340 kts | 8° |
| 2026-05-06 16:54 | 40.57195 | -8.70223 | 11441 ft | 337 kts | 9° |
| 2026-05-06 16:54 | 40.59496 | -8.69723 | 10906 ft | 334 kts | 9° |
| 2026-05-06 16:54 | 40.61780 | -8.69226 | 10375 ft | 331 kts | 10° |
| 2026-05-06 16:55 | 40.64033 | -8.68735 | 9868 ft | 327 kts | 10° |
| 2026-05-06 16:55 | 40.66270 | -8.68244 | 9298 ft | 324 kts | 10° |
| 2026-05-06 16:55 | 40.68490 | -8.67756 | 8738 ft | 322 kts | 11° |
| 2026-05-06 16:55 | 40.70688 | -8.67272 | 8172 ft | 319 kts | 11° |
| 2026-05-06 16:56 | 40.72861 | -8.66795 | 7619 ft | 312 kts | 10° |
| 2026-05-06 16:56 | 40.74958 | -8.66336 | 7161 ft | 298 kts | 11° |
| 2026-05-06 16:56 | 40.76952 | -8.65900 | 6803 ft | 283 kts | 10° |
| 2026-05-06 16:56 | 40.78851 | -8.65474 | 6446 ft | 272 kts | 11° |
| 2026-05-06 16:57 | 40.80681 | -8.65053 | 6069 ft | 262 kts | 11° |
| 2026-05-06 16:57 | 40.82453 | -8.64639 | 5686 ft | 254 kts | 11° |
| 2026-05-06 16:57 | 40.84135 | -8.64143 | 5316 ft | 257 kts | 13° |
| 2026-05-06 16:57 | 40.85987 | -8.63627 | 4953 ft | 282 kts | 12° |
| 2026-05-06 16:58 | 40.87931 | -8.63126 | 4526 ft | 284 kts | 11° |
| 2026-05-06 16:58 | 40.89832 | -8.62661 | 4199 ft | 269 kts | 10° |
| 2026-05-06 16:58 | 40.91621 | -8.62205 | 4041 ft | 257 kts | 10° |
| 2026-05-06 16:58 | 40.93400 | -8.61768 | 4023 ft | 258 kts | 7° |
| 2026-05-06 16:59 | 40.95194 | -8.61572 | 3998 ft | 259 kts | 1° |
| 2026-05-06 16:59 | 40.96966 | -8.61604 | 3979 ft | 258 kts | 356° |
| 2026-05-06 16:59 | 40.98758 | -8.61781 | 3978 ft | 257 kts | 354° |
| 2026-05-06 16:59 | 41.00530 | -8.62054 | 3856 ft | 254 kts | 352° |
| 2026-05-06 17:00 | 41.02232 | -8.62381 | 3592 ft | 241 kts | 350° |
| 2026-05-06 17:00 | 41.03843 | -8.62736 | 3364 ft | 229 kts | 348° |
| 2026-05-06 17:00 | 41.05382 | -8.63102 | 3145 ft | 220 kts | 348° |
| 2026-05-06 17:00 | 41.06821 | -8.63454 | 2933 ft | 201 kts | 347° |
| 2026-05-06 17:01 | 41.08137 | -8.63780 | 2709 ft | 183 kts | 347° |
| 2026-05-06 17:01 | 41.09361 | -8.64086 | 2461 ft | 176 kts | 346° |
| 2026-05-06 17:01 | 41.10550 | -8.64385 | 2324 ft | 174 kts | 346° |
| 2026-05-06 17:01 | 41.11739 | -8.64692 | 2189 ft | 173 kts | 346° |
| 2026-05-06 17:02 | 41.12923 | -8.64997 | 2033 ft | 172 kts | 346° |
| 2026-05-06 17:02 | 41.14098 | -8.65298 | 1972 ft | 174 kts | 346° |
| 2026-05-06 17:02 | 41.15247 | -8.65595 | 1747 ft | 161 kts | 345° |
| 2026-05-06 17:02 | 41.16314 | -8.65876 | 1534 ft | 154 kts | 345° |
| 2026-05-06 17:03 | 41.17350 | -8.66150 | 1369 ft | 151 kts | 346° |
| 2026-05-06 17:03 | 41.18375 | -8.66420 | 1185 ft | 150 kts | 346° |
| 2026-05-06 17:03 | 41.19396 | -8.66691 | 1019 ft | 150 kts | 347° |
| 2026-05-06 17:03 | 41.20405 | -8.66946 | 903 ft | 145 kts | 348° |
| 2026-05-06 17:04 | 41.21394 | -8.67186 | 745 ft | 144 kts | 347° |
| 2026-05-06 17:04 | 41.22367 | -8.67460 | 490 ft | 142 kts | 345° |
| 2026-05-06 17:04 | 41.23288 | -8.67727 | 290 ft | 129 kts | 345° |
| 2026-05-06 17:04 | 41.24084 | -8.67937 | 223 ft | 95 kts | 349° |
| 2026-05-06 17:05 | 41.24604 | -8.68071 | 214 ft | 61 kts | 348° |
| 2026-05-06 17:05 | 41.24958 | -8.68168 | 205 ft | 41 kts | 347° |
| 2026-05-06 17:05 | 41.25191 | -8.68146 | 195 ft | 26 kts | 22° |
| 2026-05-06 17:05 | 41.25286 | -8.68055 | 195 ft | 12 kts | 99° |
| 2026-05-06 17:06 | 41.25237 | -8.68007 | 200 ft | 6 kts | 167° |
| 2026-05-06 17:06 | 41.25206 | -8.67998 | 200 ft | 5 kts | 168° |
| 2026-05-06 17:06 | 41.25167 | -8.67987 | 200 ft | 6 kts | 168° |
| 2026-05-06 17:06 | 41.25124 | -8.67976 | 197 ft | 7 kts | 170° |
| 2026-05-06 17:07 | 41.25071 | -8.67964 | 204 ft | 10 kts | 169° |
| 2026-05-06 17:07 | 41.24986 | -8.67943 | 200 ft | 15 kts | 169° |
| 2026-05-06 17:07 | 41.24878 | -8.67911 | 211 ft | 15 kts | 154° |
| 2026-05-06 17:07 | 41.24784 | -8.67843 | 219 ft | 17 kts | 156° |
| 2026-05-06 17:08 | 41.24675 | -8.67806 | 222 ft | 16 kts | 169° |
| 2026-05-06 17:08 | 41.24560 | -8.67776 | 225 ft | 18 kts | 169° |
| 2026-05-06 17:08 | 41.24433 | -8.67744 | 228 ft | 18 kts | 170° |
| 2026-05-06 17:08 | 41.24321 | -8.67709 | 236 ft | 17 kts | 156° |
| 2026-05-06 17:09 | 41.24238 | -8.67601 | 241 ft | 16 kts | 144° |
| 2026-05-06 17:09 | 41.24123 | -8.67553 | 243 ft | 18 kts | 171° |
| 2026-05-06 17:09 | 41.24021 | -8.67526 | 243 ft | 14 kts | 169° |
| 2026-05-06 17:09 | 41.23916 | -8.67499 | 243 ft | 14 kts | 169° |
| 2026-05-06 17:10 | 41.23827 | -8.67478 | 244 ft | 13 kts | 169° |
| 2026-05-06 17:10 | 41.23740 | -8.67454 | 243 ft | 16 kts | 168° |
| 2026-05-06 17:10 | 41.23651 | -8.67432 | 243 ft | 9 kts | 171° |
| 2026-05-06 17:10 | 41.23603 | -8.67419 | 243 ft | 7 kts | 167° |
| 2026-05-06 17:11 | 41.23535 | -8.67402 | 244 ft | 10 kts | 178° |
| 2026-05-06 17:11 | 41.23501 | -8.67448 | 241 ft | 5 kts | 256° |
| 2026-05-06 17:11 | 41.23497 | -8.67481 | 240 ft | 0 kts | 259° |